Accueil
METAR-TAF:

METAR-TAF

Aéroports :

Aérodrome d'Örebro

Örebro, Suède

latitude: 59-14N, longitude: 015-03E, altitude: 57 m

Observation

Le bulletin a été fait il y a 24 minutes, à 18:20 UTC
Vent 8 kt de est/sud-est
Température 5°C
Humidité 87%
Pression 988 hPa
Visibilité 10 km ou plus
Ciel couvert à une hauteur de 700 ft

METAR: ESOE 221820Z 12008KT 9999 OVC007 05/03 Q0988

Heure: 19:44 (18:44 UTC)

Prévision

Le bulletin a été fait il y a 1 heure et 14 minutes, à 17:30 UTC
Prévision valable du 22 à 18 UTC au 23 à 02 UTC
Vent 7 kt de est/sud-est
Visibilité 10 km ou plus
Ciel couvert à une hauteur de 1000 ft
Temporairement
du 22 à 18 UTC au 23 à 02 UTC
Visibilité: 2000 m
Nuages fragmentés à une hauteur de 400 ft
faible bruine, brume,

TAF: ESOE 221730Z 2218/2302 12007KT 9999 OVC010 TEMPO 2218/2302 2000 -DZ BR BKN004

Observations et prévisions météorologiques de plus de 4000 aéroports (messages METAR et TAF).

Les stations disponibles sont représentées par des disques jaunes et rouges sur la carte.

Passer la souris dessus pour voir le nom de la station.

Cliquer dessus pour voir les observations et prévisions météorologiques.

Pour changer de carte: cliquez sur les boutons verts avec une croix noire pour zoomer, sur le bouton vert avec un tiret pour effectuer un zoom arrière, ou sur les flèches vertes pour les cartes adjacentes.


METAR-TAF: